Coronel Brandsen, Argentina
Current Conditions -  °F | °C
As of 5:00 AM on Wednesday 22 Oct 2014 (Local Time) from SAEZ Reporting Station
Clear Clear  
Wind Chill: 20°   Ceiling: Unl
Heat Index: 20°   Visibility: 6mi
Dew Point: 13°   Wind: 7mph
Humidity: 64%   Direction: 360°N
Pressure: 30"   Gusts: NA
Location:  35.17°S, 58.23°W
Report Text: SAEZ 220800Z 36006KT 330V030 CAVOK 20/13 Q1016
Loading
Personal Weather Stations






























Interactive Weather Map
Tropical Storm Tracking
New forecast layout! Learn more

10-Day Weather Forecast

Advertisements
Track Severe Weather on mobile